createdAt,value
2018-04-08T00:00:07.177Z,5.80
2018-04-08T00:02:35.484Z,5.70
2018-04-08T00:05:03.010Z,5.60
2018-04-08T00:07:31.320Z,5.60
2018-04-08T00:09:58.844Z,5.60
2018-04-08T00:12:26.388Z,5.50
2018-04-08T00:14:53.906Z,5.50
2018-04-08T00:17:21.440Z,5.40
2018-04-08T00:19:49.730Z,5.40
2018-04-08T00:22:17.272Z,5.40
2018-04-08T00:24:45.565Z,5.30
2018-04-08T00:27:13.110Z,5.30
2018-04-08T00:29:40.631Z,5.30
2018-04-08T00:32:08.168Z,5.30
2018-04-08T00:34:35.691Z,5.20
2018-04-08T00:37:03.231Z,5.20
2018-04-08T00:39:31.511Z,5.20
2018-04-08T00:41:59.822Z,5.20
2018-04-08T00:44:27.360Z,5.20
2018-04-08T00:46:54.883Z,5.20
2018-04-08T00:49:22.428Z,5.30
2018-04-08T00:51:49.953Z,5.30
2018-04-08T00:54:29.247Z,5.30
2018-04-08T00:56:57.539Z,5.40
2018-04-08T00:59:25.110Z,5.30
2018-04-08T01:01:52.621Z,5.30
2018-04-08T01:04:20.156Z,5.20
2018-04-08T01:06:47.672Z,5.20
2018-04-08T01:09:15.213Z,5.20
2018-04-08T01:11:43.509Z,5.20
2018-04-08T01:14:11.053Z,5.20
2018-04-08T01:16:39.341Z,5.10
2018-04-08T01:19:06.876Z,5.00
2018-04-08T01:21:35.163Z,5.00
2018-04-08T01:24:03.463Z,4.90
2018-04-08T01:26:30.992Z,4.90
2018-04-08T01:28:59.307Z,4.80
2018-04-08T01:31:26.833Z,4.80
2018-04-08T01:33:55.148Z,4.80
2018-04-08T01:36:22.669Z,4.70
2018-04-08T01:38:50.196Z,4.80
2018-04-08T01:41:17.724Z,4.80
2018-04-08T01:43:45.267Z,4.80
2018-04-08T01:46:12.789Z,4.80
2018-04-08T01:48:41.084Z,4.70
2018-04-08T01:51:08.613Z,4.70
2018-04-08T01:53:36.147Z,4.70
2018-04-08T01:56:03.673Z,4.60
2018-04-08T01:58:31.209Z,4.60
2018-04-08T02:00:58.732Z,4.50
2018-04-08T02:03:26.270Z,4.50
2018-04-08T02:05:53.800Z,4.50
2018-04-08T02:08:21.332Z,4.50
2018-04-08T02:10:49.627Z,4.40
2018-04-08T02:13:17.168Z,4.40
2018-04-08T02:15:45.461Z,4.50
2018-04-08T02:18:12.997Z,4.40
2018-04-08T02:20:41.341Z,4.50
2018-04-08T02:23:08.880Z,4.50
2018-04-08T02:25:36.445Z,4.40
2018-04-08T02:28:03.992Z,4.50
2018-04-08T02:30:31.517Z,4.40
2018-04-08T02:32:59.823Z,4.40
2018-04-08T02:35:27.344Z,4.40
2018-04-08T02:37:55.657Z,4.20
2018-04-08T02:40:23.945Z,4.10
2018-04-08T02:42:51.505Z,4.10
2018-04-08T02:45:19.032Z,4.10
2018-04-08T02:47:46.595Z,4.10
2018-04-08T02:50:14.121Z,4.10
2018-04-08T02:52:42.415Z,4.00
2018-04-08T02:55:09.952Z,4.00
2018-04-08T02:57:37.476Z,4.00
2018-04-08T03:00:05.020Z,4.00
2018-04-08T03:02:32.552Z,4.00
2018-04-08T03:05:00.903Z,4.00
2018-04-08T03:07:28.421Z,4.00
2018-04-08T03:09:55.960Z,4.10
2018-04-08T03:12:23.485Z,4.10
2018-04-08T03:14:51.792Z,4.20
2018-04-08T03:17:19.320Z,4.10
2018-04-08T03:19:47.624Z,4.20
2018-04-08T03:22:15.145Z,4.20
2018-04-08T03:24:42.675Z,4.30
2018-04-08T03:27:10.196Z,4.20
2018-04-08T03:29:37.742Z,4.30
2018-04-08T03:32:05.260Z,4.30
2018-04-08T03:34:32.793Z,4.30
2018-04-08T03:37:00.321Z,4.30
2018-04-08T03:39:27.869Z,4.30
2018-04-08T03:41:56.151Z,4.30
2018-04-08T03:44:23.693Z,4.20
2018-04-08T03:46:51.983Z,4.20
2018-04-08T03:49:20.289Z,4.20
2018-04-08T03:51:47.813Z,4.20
2018-04-08T03:54:16.116Z,4.10
2018-04-08T03:56:43.629Z,4.10
2018-04-08T03:59:11.176Z,4.10
2018-04-08T04:01:38.700Z,4.00
2018-04-08T04:04:06.241Z,4.00
2018-04-08T04:06:33.757Z,4.00
2018-04-08T04:09:01.297Z,3.90
2018-04-08T04:11:28.816Z,3.80
2018-04-08T04:13:56.336Z,3.80
2018-04-08T04:16:23.880Z,3.70
2018-04-08T04:19:03.374Z,3.60
2018-04-08T04:21:43.496Z,3.50
2018-04-08T04:24:23.462Z,3.40
2018-04-08T04:26:50.972Z,3.40
2018-04-08T04:29:18.500Z,3.30
2018-04-08T04:31:46.049Z,3.30
2018-04-08T04:34:13.571Z,3.20
2018-04-08T04:36:41.876Z,3.20
2018-04-08T04:39:09.402Z,3.20
2018-04-08T04:41:36.968Z,3.10
2018-04-08T04:44:05.255Z,3.10
2018-04-08T04:46:33.561Z,3.10
2018-04-08T04:49:01.077Z,3.10
2018-04-08T04:51:29.380Z,3.10
2018-04-08T04:53:56.897Z,3.10
2018-04-08T04:56:24.452Z,3.10
2018-04-08T04:58:51.980Z,3.20
2018-04-08T05:01:19.517Z,3.20
2018-04-08T05:03:47.088Z,3.20
2018-04-08T05:06:15.365Z,3.30
2018-04-08T05:08:42.932Z,3.30
2018-04-08T05:11:10.480Z,3.40
2018-04-08T05:13:38.222Z,3.40
2018-04-08T05:16:05.757Z,3.40
2018-04-08T05:18:34.039Z,3.40
2018-04-08T05:21:02.350Z,3.60
2018-04-08T05:23:29.870Z,3.60
2018-04-08T05:25:57.416Z,3.70
2018-04-08T05:28:24.928Z,3.80
2018-04-08T05:30:52.463Z,4.00
2018-04-08T05:33:31.025Z,4.10
2018-04-08T05:35:58.564Z,4.20
2018-04-08T05:38:26.080Z,4.30
2018-04-08T05:40:54.386Z,4.60
2018-04-08T05:43:21.904Z,4.60
2018-04-08T05:45:50.208Z,5.20
2018-04-08T05:48:17.734Z,5.20
2018-04-08T05:50:45.275Z,5.80
2018-04-08T05:53:12.799Z,6.30
2018-04-08T05:55:40.333Z,6.90
2018-04-08T05:58:08.614Z,7.20
2018-04-08T06:00:36.156Z,7.20
2018-04-08T06:03:04.465Z,7.40
2018-04-08T06:05:31.983Z,7.40
2018-04-08T06:07:59.556Z,7.90
2018-04-08T06:10:27.104Z,8.50
2018-04-08T06:12:55.418Z,10.00
2018-04-08T06:15:22.936Z,10.00
2018-04-08T06:17:51.239Z,11.10
2018-04-08T06:20:18.767Z,11.00
2018-04-08T06:22:47.072Z,12.10
2018-04-08T06:25:14.636Z,12.10
2018-04-08T06:27:42.184Z,12.40
2018-04-08T06:30:09.700Z,12.60
2018-04-08T06:32:37.240Z,13.00
2018-04-08T06:35:04.758Z,13.30
2018-04-08T06:37:32.298Z,13.40
2018-04-08T06:40:00.584Z,14.20
2018-04-08T06:42:28.888Z,14.70
2018-04-08T06:44:56.406Z,14.70
2018-04-08T06:47:24.705Z,15.40
2018-04-08T06:49:52.236Z,15.40
2018-04-08T06:52:20.659Z,16.20
2018-04-08T06:54:48.189Z,16.10
2018-04-08T06:57:15.731Z,16.50
2018-04-08T06:59:44.016Z,17.40
2018-04-08T07:02:12.319Z,17.30
2018-04-08T07:04:39.844Z,17.30
2018-04-08T07:07:08.149Z,17.70
2018-04-08T07:09:35.682Z,17.60
2018-04-08T07:12:04.016Z,18.40
2018-04-08T07:14:31.547Z,18.40
2018-04-08T07:16:59.076Z,18.50
2018-04-08T07:19:27.367Z,18.10
2018-04-08T07:21:54.905Z,18.10
2018-04-08T07:24:23.195Z,18.80
2018-04-08T07:26:50.748Z,18.70
2018-04-08T07:29:19.044Z,17.90
2018-04-08T07:31:46.581Z,17.90
2018-04-08T07:34:14.863Z,17.30
2018-04-08T07:36:42.459Z,17.30
2018-04-08T07:39:09.986Z,16.60
2018-04-08T07:41:37.530Z,17.20
2018-04-08T07:44:05.823Z,17.30
2018-04-08T07:46:33.378Z,17.30
2018-04-08T07:49:00.897Z,17.60
2018-04-08T07:51:28.431Z,17.90
2018-04-08T07:53:55.952Z,18.30
2018-04-08T07:56:23.484Z,17.70
2018-04-08T07:58:51.005Z,17.10
2018-04-08T08:01:18.559Z,17.00
2018-04-08T08:03:46.080Z,16.60
2018-04-08T08:06:13.610Z,16.80
2018-04-08T08:08:41.153Z,17.90
2018-04-08T08:11:08.693Z,18.50
2018-04-08T08:13:36.227Z,19.30
2018-04-08T08:16:03.978Z,19.80
2018-04-08T08:18:31.517Z,20.50
2018-04-08T08:20:59.811Z,20.90
2018-04-08T08:23:27.365Z,20.90
2018-04-08T08:25:55.656Z,20.90
2018-04-08T08:28:23.237Z,20.90
2018-04-08T08:30:50.762Z,20.60
2018-04-08T08:33:18.301Z,22.00
2018-04-08T08:35:47.195Z,22.70
2018-04-08T08:38:15.554Z,23.30
2018-04-08T08:40:43.556Z,23.20
2018-04-08T08:43:11.134Z,23.10
2018-04-08T08:45:38.657Z,23.40
2018-04-08T08:48:06.967Z,24.20
2018-04-08T08:50:34.501Z,24.20
2018-04-08T08:53:02.804Z,23.70
2018-04-08T08:55:30.333Z,23.70
2018-04-08T08:57:58.628Z,24.70
2018-04-08T09:00:26.187Z,24.70
2018-04-08T09:03:00.803Z,24.90
2018-04-08T09:05:28.317Z,25.10
2018-04-08T09:07:55.856Z,23.00
2018-04-08T09:10:23.385Z,22.70
2018-04-08T09:12:50.927Z,22.60
2018-04-08T09:15:19.219Z,22.60
2018-04-08T09:17:46.764Z,22.60
2018-04-08T09:20:30.984Z,22.40
2018-04-08T09:23:04.080Z,22.40
2018-04-08T09:25:46.482Z,24.20
2018-04-08T09:28:14.083Z,24.60
2018-04-08T09:30:41.576Z,24.50
2018-04-08T09:33:09.125Z,23.40
2018-04-08T09:35:36.658Z,24.60
2018-04-08T09:38:04.202Z,23.30
2018-04-08T09:40:31.745Z,23.30
2018-04-08T09:42:59.361Z,23.80
2018-04-08T09:45:28.031Z,23.30
2018-04-08T09:47:55.592Z,25.10
2018-04-08T09:50:23.128Z,24.70
2018-04-08T09:52:50.672Z,24.00
2018-04-08T09:55:22.129Z,23.90
2018-04-08T09:57:50.332Z,23.80
2018-04-08T10:00:23.602Z,23.10
2018-04-08T10:02:56.945Z,22.40
2018-04-08T10:05:24.524Z,24.50
2018-04-08T10:07:52.020Z,25.60
2018-04-08T10:10:19.556Z,26.60
2018-04-08T10:12:47.836Z,26.70
2018-04-08T10:15:16.148Z,27.80
2018-04-08T10:17:43.677Z,27.70
2018-04-08T10:20:11.229Z,28.20
2018-04-08T10:22:41.461Z,29.50
2018-04-08T10:25:09.010Z,29.40
2018-04-08T10:27:36.561Z,28.40
2018-04-08T10:30:04.902Z,27.50
2018-04-08T10:32:32.485Z,27.40
2018-04-08T10:35:00.041Z,28.80
2018-04-08T10:37:27.564Z,29.20
2018-04-08T10:39:55.100Z,30.10
2018-04-08T10:42:22.628Z,29.10
2018-04-08T10:44:50.956Z,28.70
2018-04-08T10:47:18.496Z,28.60
2018-04-08T10:49:46.037Z,29.80
2018-04-08T10:52:13.598Z,30.60
2018-04-08T10:54:41.157Z,30.00
2018-04-08T10:57:08.679Z,29.50
2018-04-08T10:59:36.240Z,29.80
2018-04-08T11:02:03.759Z,29.40
2018-04-08T11:04:31.301Z,30.50
2018-04-08T11:06:58.820Z,30.30
2018-04-08T11:09:26.362Z,29.50
2018-04-08T11:11:53.890Z,27.30
2018-04-08T11:14:21.437Z,25.00
2018-04-08T11:16:48.956Z,25.20
2018-04-08T11:19:17.279Z,29.70
2018-04-08T11:21:44.794Z,29.60
2018-04-08T11:24:13.109Z,30.40
2018-04-08T11:26:40.632Z,30.40
2018-04-08T11:29:08.938Z,31.10
2018-04-08T11:31:36.509Z,31.00
2018-04-08T11:34:04.015Z,30.70
2018-04-08T11:36:32.396Z,31.20
2018-04-08T11:39:00.699Z,31.70
2018-04-08T11:41:28.217Z,31.70
2018-04-08T11:43:55.755Z,32.20
2018-04-08T11:46:23.276Z,32.10
2018-04-08T11:48:50.839Z,31.00
2018-04-08T11:51:18.357Z,30.50
2018-04-08T11:53:45.909Z,31.60
2018-04-08T11:56:13.437Z,30.70
2018-04-08T11:58:40.988Z,31.60
2018-04-08T12:01:08.546Z,30.30
2018-04-08T12:03:36.132Z,29.60
2018-04-08T12:06:03.636Z,29.60
2018-04-08T12:08:31.161Z,29.80
2018-04-08T12:10:58.705Z,29.70
2018-04-08T12:13:26.236Z,28.10
2018-04-08T12:15:53.772Z,26.60
2018-04-08T12:18:21.316Z,27.90
2018-04-08T12:20:49.125Z,28.40
2018-04-08T12:23:31.211Z,29.20
2018-04-08T12:25:58.741Z,30.30
2018-04-08T12:28:27.041Z,29.70
2018-04-08T12:30:54.589Z,29.70
2018-04-08T12:33:22.134Z,29.10
2018-04-08T12:35:49.680Z,29.20
2018-04-08T12:38:17.965Z,30.60
2018-04-08T12:40:45.508Z,30.60
2018-04-08T12:43:13.024Z,31.20
2018-04-08T12:45:40.560Z,28.90
2018-04-08T12:48:08.082Z,26.50
2018-04-08T12:50:36.392Z,25.80
2018-04-08T12:55:57.716Z,25.40
2018-04-08T12:58:25.240Z,27.20
2018-04-08T13:00:52.780Z,26.00
2018-04-08T13:03:20.341Z,26.60
2018-04-08T13:05:47.888Z,28.30
2018-04-08T13:08:15.408Z,28.10
2018-04-08T13:10:42.959Z,28.90
2018-04-08T13:13:10.480Z,28.80
2018-04-08T13:15:38.017Z,28.60
2018-04-08T13:18:05.536Z,29.70
2018-04-08T13:20:33.072Z,30.10
2018-04-08T13:23:01.353Z,29.70
2018-04-08T13:25:29.664Z,29.30
2018-04-08T13:27:57.181Z,29.30
2018-04-08T13:30:25.486Z,29.30
2018-04-08T13:32:53.005Z,29.30
2018-04-08T13:35:20.550Z,28.80
2018-04-08T13:37:48.232Z,27.60
2018-04-08T13:40:15.799Z,27.60
2018-04-08T13:42:44.097Z,27.50
2018-04-08T13:45:11.654Z,27.50
2018-04-08T13:47:39.175Z,26.50
2018-04-08T13:50:06.716Z,25.60
2018-04-08T13:52:34.242Z,24.00
2018-04-08T13:55:01.786Z,24.80
2018-04-08T13:57:29.312Z,25.00
2018-04-08T13:59:56.852Z,25.40
2018-04-08T14:02:24.381Z,25.40
2018-04-08T14:04:51.915Z,25.50
2018-04-08T14:07:19.439Z,25.00
2018-04-08T14:09:46.980Z,25.10
2018-04-08T14:12:14.498Z,25.10
2018-04-08T14:14:42.047Z,24.60
2018-04-08T14:17:09.564Z,24.20
2018-04-08T14:19:37.113Z,24.10
2018-04-08T14:22:04.637Z,23.60
2018-04-08T14:24:32.173Z,23.50
2018-04-08T14:26:59.711Z,23.60
2018-04-08T14:29:27.227Z,24.10
2018-04-08T14:31:54.766Z,24.00
2018-04-08T14:34:22.290Z,23.80
2018-04-08T14:36:49.832Z,23.70
2018-04-08T14:39:17.357Z,23.50
2018-04-08T14:41:44.891Z,23.60
2018-04-08T14:44:12.417Z,23.70
2018-04-08T14:46:40.781Z,23.60
2018-04-08T14:49:08.272Z,23.60
2018-04-08T14:51:36.584Z,23.70
2018-04-08T14:54:04.113Z,23.70
2018-04-08T14:56:31.657Z,23.40
2018-04-08T14:58:59.952Z,23.00
2018-04-08T15:01:27.490Z,23.00
2018-04-08T15:03:55.785Z,22.40
2018-04-08T15:06:23.320Z,22.40
2018-04-08T15:08:51.608Z,22.30
2018-04-08T15:11:19.907Z,22.30
2018-04-08T15:13:47.425Z,22.30
2018-04-08T15:16:15.028Z,21.90
2018-04-08T15:18:42.544Z,21.80
2018-04-08T15:21:10.848Z,21.30
2018-04-08T15:23:38.367Z,21.30
2018-04-08T15:26:05.900Z,21.20
2018-04-08T15:28:33.433Z,21.20
2018-04-08T15:31:01.001Z,21.10
2018-04-08T15:33:28.545Z,20.90
2018-04-08T15:35:56.136Z,20.60
2018-04-08T15:38:23.704Z,20.30
2018-04-08T15:40:51.301Z,20.30
2018-04-08T15:43:19.601Z,20.10
2018-04-08T15:45:47.176Z,20.10
2018-04-08T15:48:14.736Z,20.10
2018-04-08T15:50:42.317Z,20.00
2018-04-08T15:53:09.857Z,19.90
2018-04-08T15:55:37.424Z,19.80
2018-04-08T15:58:04.972Z,19.70
2018-04-08T16:00:32.541Z,19.60
2018-04-08T16:03:00.076Z,19.50
2018-04-08T16:05:27.601Z,19.40
2018-04-08T16:07:55.904Z,19.20
2018-04-08T16:10:23.424Z,19.10
2018-04-08T16:12:50.972Z,19.00
2018-04-08T16:15:18.504Z,18.80
2018-04-08T16:17:46.046Z,18.80
2018-04-08T16:20:13.617Z,18.70
2018-04-08T16:22:41.124Z,18.70
2018-04-08T16:25:09.413Z,18.60
2018-04-08T16:27:36.963Z,18.50
2018-04-08T16:30:05.262Z,18.40
2018-04-08T16:32:32.795Z,18.40
2018-04-08T16:35:01.084Z,18.30
2018-04-08T16:37:29.389Z,18.20
2018-04-08T16:39:56.908Z,18.20
2018-04-08T16:42:25.221Z,18.00
2018-04-08T16:44:52.745Z,18.00
2018-04-08T16:47:21.053Z,17.80
2018-04-08T16:49:48.618Z,17.80
2018-04-08T16:52:16.160Z,17.70
2018-04-08T16:54:43.682Z,17.60
2018-04-08T16:57:11.980Z,17.40
2018-04-08T16:59:39.500Z,17.40
2018-04-08T17:02:07.038Z,17.40
2018-04-08T17:04:34.569Z,17.30
2018-04-08T17:07:02.113Z,17.20
2018-04-08T17:09:29.641Z,17.10
2018-04-08T17:11:57.192Z,17.00
2018-04-08T17:14:24.712Z,17.00
2018-04-08T17:16:52.257Z,16.90
2018-04-08T17:19:19.779Z,16.80
2018-04-08T17:21:48.083Z,16.60
2018-04-08T17:24:15.596Z,16.60
2018-04-08T17:26:43.132Z,16.40
2018-04-08T17:29:10.647Z,16.30
2018-04-08T17:31:38.195Z,16.10
2018-04-08T17:34:06.488Z,15.90
2018-04-08T17:36:34.042Z,15.80
2018-04-08T17:39:01.586Z,15.70
2018-04-08T17:41:29.897Z,15.30
2018-04-08T17:43:57.437Z,15.30
2018-04-08T17:46:25.003Z,15.10
2018-04-08T17:48:52.524Z,15.00
2018-04-08T17:51:20.125Z,14.80
2018-04-08T17:53:47.680Z,14.60
2018-04-08T17:56:15.241Z,14.50
2018-04-08T17:58:42.776Z,14.30
2018-04-08T18:01:11.160Z,13.80
2018-04-08T18:03:39.468Z,13.60
2018-04-08T18:06:07.003Z,13.60
2018-04-08T18:08:34.575Z,13.40
2018-04-08T18:11:02.114Z,13.20
2018-04-08T18:13:30.421Z,12.90
2018-04-08T18:15:57.952Z,12.90
2018-04-08T18:18:25.509Z,12.80
2018-04-08T18:20:53.054Z,12.70
2018-04-08T18:23:21.382Z,12.50
2018-04-08T18:25:48.906Z,12.40
2018-04-08T18:28:16.444Z,12.40
2018-04-08T18:30:44.753Z,12.20
2018-04-08T18:33:12.312Z,12.20
2018-04-08T18:35:39.837Z,12.10
2018-04-08T18:38:08.144Z,12.00
2018-04-08T18:40:35.673Z,11.90
2018-04-08T18:43:03.998Z,11.80
2018-04-08T18:45:31.581Z,11.80
2018-04-08T18:47:59.170Z,11.80
2018-04-08T18:50:26.953Z,11.70
2018-04-08T18:52:54.672Z,11.60
2018-04-08T18:55:22.198Z,11.40
2018-04-08T18:57:49.746Z,11.30
2018-04-08T19:00:17.421Z,11.20
2018-04-08T19:02:44.970Z,11.10
2018-04-08T19:05:12.548Z,11.00
2018-04-08T19:07:40.130Z,10.90
2018-04-08T19:10:07.799Z,10.80
2018-04-08T19:12:35.491Z,10.80
2018-04-08T19:15:08.647Z,10.70
2018-04-08T19:17:42.575Z,10.50
2018-04-08T19:20:10.918Z,10.40
2018-04-08T19:22:38.460Z,10.40
2018-04-08T19:25:06.096Z,10.40
2018-04-08T19:27:35.734Z,10.30
2018-04-08T19:30:03.260Z,10.20
2018-04-08T19:32:30.800Z,10.10
2018-04-08T19:34:59.096Z,10.00
2018-04-08T19:37:26.665Z,10.00
2018-04-08T19:39:54.182Z,9.90
2018-04-08T19:42:22.494Z,9.80
2018-04-08T19:44:50.015Z,9.80
2018-04-08T19:47:18.332Z,9.70
2018-04-08T19:49:47.197Z,9.70
2018-04-08T19:52:15.505Z,9.60
2018-04-08T19:54:43.033Z,9.60
2018-04-08T19:57:10.568Z,9.60
2018-04-08T19:59:38.097Z,9.60
2018-04-08T20:02:05.640Z,9.60
2018-04-08T20:04:33.383Z,9.60
2018-04-08T20:07:00.956Z,9.60
2018-04-08T20:09:28.697Z,9.50
2018-04-08T20:11:56.348Z,9.50
2018-04-08T20:14:23.969Z,9.50
2018-04-08T20:16:51.582Z,9.40
2018-04-08T20:19:19.224Z,9.40
2018-04-08T20:21:47.569Z,9.30
2018-04-08T20:24:15.240Z,9.30
2018-04-08T20:26:42.903Z,9.20
2018-04-08T20:29:10.540Z,9.20
2018-04-08T20:31:38.134Z,9.10
2018-04-08T20:34:05.703Z,9.00
2018-04-08T20:36:33.309Z,8.90
2018-04-08T20:39:00.880Z,8.80
2018-04-08T20:41:28.452Z,8.70
2018-04-08T20:43:56.050Z,8.70
2018-04-08T20:46:23.575Z,8.70
2018-04-08T20:48:51.468Z,8.60
2018-04-08T20:51:19.794Z,8.50
2018-04-08T20:53:47.390Z,8.50
2018-04-08T20:56:14.985Z,8.50
2018-04-08T20:58:42.660Z,8.40
2018-04-08T21:01:10.226Z,8.30
2018-04-08T21:03:37.841Z,8.20
2018-04-08T21:06:05.447Z,8.10
2018-04-08T21:08:33.598Z,8.10
2018-04-08T21:11:01.262Z,8.10
2018-04-08T21:13:29.937Z,8.00
2018-04-08T21:15:57.652Z,7.90
2018-04-08T21:18:26.009Z,7.90
2018-04-08T21:20:53.564Z,7.90
2018-04-08T21:23:21.152Z,7.90
2018-04-08T21:25:48.791Z,7.80
2018-04-08T21:28:16.505Z,7.80
2018-04-08T21:30:44.794Z,7.70
2018-04-08T21:33:12.362Z,7.70
2018-04-08T21:35:39.888Z,7.70
2018-04-08T21:38:07.471Z,7.70
2018-04-08T21:40:35.013Z,7.60
2018-04-08T21:43:02.590Z,7.60
2018-04-08T21:45:30.171Z,7.60
2018-04-08T21:47:57.738Z,7.50
2018-04-08T21:50:25.439Z,7.50
2018-04-08T21:52:53.811Z,7.30
2018-04-08T21:55:21.386Z,7.30
2018-04-08T21:57:48.972Z,7.30
2018-04-08T22:00:16.597Z,7.20
2018-04-08T22:02:44.223Z,7.10
2018-04-08T22:05:11.785Z,7.10
2018-04-08T22:07:39.354Z,7.10
2018-04-08T22:10:07.003Z,7.10
2018-04-08T22:12:34.588Z,7.00
2018-04-08T22:15:02.279Z,7.00
2018-04-08T22:17:29.831Z,7.00
2018-04-08T22:19:57.412Z,7.00
2018-04-08T22:22:24.974Z,6.90
2018-04-08T22:24:52.530Z,6.90
2018-04-08T22:27:20.071Z,6.80
2018-04-08T22:29:48.536Z,6.80
2018-04-08T22:32:16.856Z,6.70
2018-04-08T22:34:44.429Z,6.70
2018-04-08T22:37:11.957Z,6.70
2018-04-08T22:39:39.511Z,6.70
2018-04-08T22:42:07.071Z,6.60
2018-04-08T22:44:34.628Z,6.60
2018-04-08T22:47:02.169Z,6.60
2018-04-08T22:49:29.714Z,6.50
2018-04-08T22:51:58.017Z,6.50
2018-04-08T22:54:25.579Z,6.50
2018-04-08T22:56:53.127Z,6.50
2018-04-08T22:59:20.719Z,6.40
2018-04-08T23:01:48.256Z,6.40
2018-04-08T23:04:15.821Z,6.40
2018-04-08T23:06:43.373Z,6.30
2018-04-08T23:09:10.958Z,6.30
2018-04-08T23:11:38.562Z,6.30
2018-04-08T23:14:06.108Z,6.30
2018-04-08T23:16:33.673Z,6.30
2018-04-08T23:19:02.032Z,6.20
2018-04-08T23:21:29.596Z,6.20
2018-04-08T23:23:57.174Z,6.30
2018-04-08T23:26:25.475Z,6.20
2018-04-08T23:28:53.045Z,6.20
2018-04-08T23:31:20.596Z,6.20
2018-04-08T23:33:48.194Z,6.20
2018-04-08T23:36:15.766Z,6.20
2018-04-08T23:38:43.368Z,6.20
2018-04-08T23:41:10.942Z,6.10
2018-04-08T23:43:38.502Z,6.10
2018-04-08T23:46:06.049Z,6.00
2018-04-08T23:48:33.613Z,6.00
2018-04-08T23:51:01.159Z,6.00
2018-04-08T23:53:28.719Z,5.90
2018-04-08T23:55:56.287Z,5.90
2018-04-08T23:58:23.864Z,5.80
